Аэропорт: Уйташ. Махачкала

ICAO: URML

METAR:
2018/11/21 18:30
URML 211830Z 34003MPS 9999 OVC010 05/02 Q1018 R32/01//70 NOSIG RMK MT OBSC QFE763/1018
METAR:
2018/10/17 18:00
TAF URML 171700Z 1718/1803 15005G10MPS 6000 SCT011 BKN020 
      TEMPO 1718/1724 22003G10MPS 3100 BR SCT007 BKN011